createdAt,value
2023-04-09T00:01:11.823Z,102032.16
2023-04-09T00:03:40.462Z,102029.69
2023-04-09T00:06:07.803Z,102031.34
2023-04-09T00:08:37.170Z,102030.56
2023-04-09T00:11:04.892Z,102030.16
2023-04-09T00:13:39.312Z,102036.22
2023-04-09T00:16:08.543Z,102027.06
2023-04-09T00:18:36.276Z,102030.63
2023-04-09T00:21:03.387Z,102037.00
2023-04-09T00:23:30.590Z,102040.75
2023-04-09T00:25:57.748Z,102028.28
2023-04-09T00:28:25.422Z,102028.84
2023-04-09T00:30:52.620Z,102028.06
2023-04-09T00:33:19.662Z,102036.03
2023-04-09T00:35:46.763Z,102026.97
2023-04-09T00:38:13.859Z,102023.75
2023-04-09T00:40:41.038Z,102024.50
2023-04-09T00:43:08.102Z,102021.38
2023-04-09T00:45:36.040Z,102022.63
2023-04-09T00:48:03.469Z,102025.88
2023-04-09T00:50:30.621Z,102019.44
2023-04-09T00:52:57.758Z,102016.75
2023-04-09T00:55:25.891Z,102012.97
2023-04-09T00:57:52.991Z,102019.03
2023-04-09T01:00:20.583Z,102013.25
2023-04-09T01:02:48.858Z,102009.16
2023-04-09T01:05:16.096Z,102018.22
2023-04-09T01:08:32.349Z,102018.75
2023-04-09T01:11:20.885Z,102023.31
2023-04-09T01:14:21.065Z,102017.78
2023-04-09T01:16:59.925Z,102013.84
2023-04-09T01:20:07.444Z,102016.44
2023-04-09T01:23:04.575Z,102013.13
2023-04-09T01:26:24.328Z,102014.16
2023-04-09T01:28:56.001Z,102020.31
2023-04-09T01:31:36.237Z,102008.97
2023-04-09T01:34:06.270Z,102013.41
2023-04-09T01:36:35.771Z,102016.69
2023-04-09T01:39:03.617Z,102019.72
2023-04-09T01:41:34.168Z,102015.97
2023-04-09T01:44:05.776Z,102023.34
2023-04-09T01:46:35.224Z,102022.66
2023-04-09T01:49:03.034Z,102020.22
2023-04-09T01:51:32.315Z,102017.69
2023-04-09T01:54:00.868Z,102024.84
2023-04-09T01:56:27.953Z,102027.44
2023-04-09T01:58:55.273Z,102024.44
2023-04-09T02:01:53.316Z,102028.34
2023-04-09T02:04:31.035Z,102023.59
2023-04-09T02:07:20.650Z,102032.53
2023-04-09T02:09:49.419Z,102033.78
2023-04-09T02:12:19.587Z,102036.19
2023-04-09T02:14:49.175Z,102032.47
2023-04-09T02:17:16.339Z,102035.13
2023-04-09T02:19:46.562Z,102038.50
2023-04-09T02:22:15.540Z,102032.63
2023-04-09T02:24:42.698Z,102032.03
2023-04-09T02:27:09.946Z,102036.59
2023-04-09T02:29:37.071Z,102038.09
2023-04-09T02:32:04.302Z,102043.19
2023-04-09T02:34:31.413Z,102044.22
2023-04-09T02:36:58.488Z,102045.53
2023-04-09T02:39:26.026Z,102051.59
2023-04-09T02:41:53.183Z,102038.69
2023-04-09T02:44:20.372Z,102046.34
2023-04-09T02:46:49.538Z,102047.16
2023-04-09T02:49:16.728Z,102047.47
2023-04-09T02:51:43.778Z,102045.16
2023-04-09T02:54:10.842Z,102041.88
2023-04-09T02:56:37.992Z,102045.13
2023-04-09T02:59:04.998Z,102043.19
2023-04-09T03:01:32.168Z,102047.50
2023-04-09T03:04:00.932Z,102052.72
2023-04-09T03:06:28.414Z,102041.19
2023-04-09T03:08:55.536Z,102037.00
2023-04-09T03:11:22.778Z,102038.25
2023-04-09T03:13:50.177Z,102036.75
2023-04-09T03:16:17.312Z,102033.44
2023-04-09T03:18:44.493Z,102035.38
2023-04-09T03:21:13.743Z,102033.09
2023-04-09T03:23:42.062Z,102026.81
2023-04-09T03:26:09.233Z,102015.66
2023-04-09T03:28:36.421Z,102016.31
2023-04-09T03:31:06.532Z,102021.44
2023-04-09T03:33:33.546Z,102021.28
2023-04-09T03:36:00.745Z,102022.44
2023-04-09T03:38:27.832Z,102020.75
2023-04-09T03:40:55.897Z,102016.91
2023-04-09T03:43:22.936Z,102016.53
2023-04-09T03:45:50.071Z,102016.06
2023-04-09T03:48:17.147Z,102014.81
2023-04-09T03:50:44.220Z,102011.22
2023-04-09T03:53:11.334Z,102006.59
2023-04-09T03:55:41.431Z,102019.34
2023-04-09T03:58:08.528Z,102014.81
2023-04-09T04:00:35.765Z,102016.06
2023-04-09T04:03:03.166Z,102016.66
2023-04-09T04:05:30.714Z,102014.81
2023-04-09T04:07:57.787Z,102014.84
2023-04-09T04:10:24.904Z,102017.13
2023-04-09T04:12:54.305Z,102023.00
2023-04-09T04:15:21.422Z,102017.59
2023-04-09T04:17:48.525Z,102032.25
2023-04-09T04:20:15.730Z,102037.84
2023-04-09T04:22:42.771Z,102037.06
2023-04-09T04:25:10.703Z,102036.91
2023-04-09T04:27:37.812Z,102040.81
2023-04-09T04:30:06.163Z,102040.31
2023-04-09T04:32:33.293Z,102035.13
2023-04-09T04:35:00.430Z,102034.63
2023-04-09T04:37:27.613Z,102035.53
2023-04-09T04:39:54.665Z,102037.94
2023-04-09T04:42:23.113Z,102041.25
2023-04-09T04:44:50.233Z,102035.78
2023-04-09T04:47:17.665Z,102030.31
2023-04-09T04:49:44.845Z,102038.97
2023-04-09T04:52:11.941Z,102034.94
2023-04-09T04:54:39.056Z,102030.31
2023-04-09T04:57:06.165Z,102035.19
2023-04-09T04:59:33.545Z,102041.50
2023-04-09T05:02:02.551Z,102039.66
2023-04-09T05:04:29.748Z,102042.38
2023-04-09T05:06:56.804Z,102041.53
2023-04-09T05:09:26.212Z,102049.56
2023-04-09T05:11:53.318Z,102046.72
2023-04-09T05:14:21.506Z,102045.69
2023-04-09T05:16:48.659Z,102048.03
2023-04-09T05:19:15.730Z,102048.84
2023-04-09T05:21:42.855Z,102047.88
2023-04-09T05:24:09.907Z,102049.84
2023-04-09T05:26:37.087Z,102051.41
2023-04-09T05:29:04.249Z,102046.25
2023-04-09T05:31:31.659Z,102049.66
2023-04-09T05:33:58.750Z,102044.09
2023-04-09T05:36:26.192Z,102051.16
2023-04-09T05:38:53.499Z,102053.75
2023-04-09T05:41:20.896Z,102052.97
2023-04-09T05:43:47.975Z,102048.34
2023-04-09T05:46:15.239Z,102050.94
2023-04-09T05:48:42.631Z,102050.28
2023-04-09T05:51:09.980Z,102054.72
2023-04-09T05:53:37.106Z,102063.13
2023-04-09T05:56:14.812Z,102055.13
2023-04-09T05:58:41.857Z,102063.59
2023-04-09T06:01:10.087Z,102053.16
2023-04-09T06:03:37.358Z,102059.25
2023-04-09T06:06:05.004Z,102060.66
2023-04-09T06:08:32.093Z,102058.97
2023-04-09T06:10:59.446Z,102063.22
2023-04-09T06:13:26.617Z,102063.19
2023-04-09T06:15:53.830Z,102062.53
2023-04-09T06:18:21.257Z,102063.41
2023-04-09T06:20:48.356Z,102071.28
2023-04-09T06:23:15.653Z,102064.63
2023-04-09T06:25:42.959Z,102066.78
2023-04-09T06:28:09.965Z,102066.53
2023-04-09T06:30:37.409Z,102068.19
2023-04-09T06:33:04.679Z,102071.88
2023-04-09T06:35:32.433Z,102073.63
2023-04-09T06:37:59.507Z,102071.91
2023-04-09T06:40:27.331Z,102081.28
2023-04-09T06:42:54.414Z,102074.81
2023-04-09T06:45:21.646Z,102073.28
2023-04-09T06:47:49.262Z,102076.69
2023-04-09T06:50:16.676Z,102078.34
2023-04-09T06:52:43.703Z,102076.16
2023-04-09T06:55:11.492Z,102083.81
2023-04-09T06:57:39.231Z,102079.31
2023-04-09T07:00:07.939Z,102083.19
2023-04-09T07:02:35.697Z,102086.88
2023-04-09T07:05:04.241Z,102098.88
2023-04-09T07:07:31.628Z,102095.38
2023-04-09T07:09:58.743Z,102096.47
2023-04-09T07:12:35.234Z,102098.63
2023-04-09T07:15:07.591Z,102100.72
2023-04-09T07:17:35.894Z,102100.16
2023-04-09T07:20:03.630Z,102105.22
2023-04-09T07:22:31.138Z,102101.88
2023-04-09T07:24:58.265Z,102101.28
2023-04-09T07:27:28.529Z,102090.31
2023-04-09T07:29:59.946Z,102094.63
2023-04-09T07:32:28.118Z,102090.94
2023-04-09T07:34:57.229Z,102086.59
2023-04-09T07:37:24.469Z,102089.84
2023-04-09T07:39:51.612Z,102087.47
2023-04-09T07:42:18.892Z,102087.44
2023-04-09T07:44:47.412Z,102097.38
2023-04-09T07:47:15.419Z,102103.78
2023-04-09T07:49:42.659Z,102093.19
2023-04-09T07:52:09.706Z,102095.47
2023-04-09T07:54:36.836Z,102085.59
2023-04-09T07:57:04.003Z,102089.81
2023-04-09T07:59:31.681Z,102094.94
2023-04-09T08:01:59.631Z,102093.34
2023-04-09T08:04:27.328Z,102093.91
2023-04-09T08:06:55.021Z,102102.31
2023-04-09T08:09:22.185Z,102099.34
2023-04-09T08:11:50.459Z,102105.53
2023-04-09T08:14:18.795Z,102112.09
2023-04-09T08:16:47.829Z,102106.97
2023-04-09T08:19:17.251Z,102107.34
2023-04-09T08:21:44.883Z,102110.16
2023-04-09T08:24:12.676Z,102110.22
2023-04-09T08:26:41.402Z,102118.31
2023-04-09T08:29:12.220Z,102115.44
2023-04-09T08:31:39.838Z,102119.56
2023-04-09T08:34:10.428Z,102122.75
2023-04-09T08:36:37.553Z,102115.53
2023-04-09T08:39:04.814Z,102114.97
2023-04-09T08:41:32.036Z,102114.16
2023-04-09T08:43:59.913Z,102114.88
2023-04-09T08:46:28.415Z,102122.19
2023-04-09T08:48:56.487Z,102118.00
2023-04-09T08:51:25.000Z,102123.75
2023-04-09T08:54:04.382Z,102124.78
2023-04-09T08:56:32.629Z,102119.06
2023-04-09T08:59:00.003Z,102117.78
2023-04-09T09:01:30.505Z,102110.59
2023-04-09T09:04:09.500Z,102109.25
2023-04-09T09:06:41.086Z,102109.47
2023-04-09T09:09:16.966Z,102109.72
2023-04-09T09:11:50.985Z,102109.34
2023-04-09T09:14:19.836Z,102116.47
2023-04-09T09:16:56.139Z,102117.59
2023-04-09T09:19:30.727Z,102119.91
2023-04-09T09:22:01.811Z,102120.38
2023-04-09T09:24:32.466Z,102120.63
2023-04-09T09:26:59.872Z,102122.47
2023-04-09T09:29:28.525Z,102124.88
2023-04-09T09:31:56.898Z,102117.81
2023-04-09T09:34:25.883Z,102123.56
2023-04-09T09:36:53.341Z,102119.56
2023-04-09T09:39:22.016Z,102111.75
2023-04-09T09:42:06.540Z,102114.44
2023-04-09T09:44:34.052Z,102115.78
2023-04-09T09:47:03.479Z,102108.75
2023-04-09T09:49:30.622Z,102106.38
2023-04-09T09:52:03.167Z,102099.94
2023-04-09T09:54:47.673Z,102099.03
2023-04-09T09:57:18.743Z,102097.41
2023-04-09T10:00:00.531Z,102104.81
2023-04-09T10:02:32.918Z,102098.88
2023-04-09T10:05:04.525Z,102097.03
2023-04-09T10:07:32.002Z,102100.88
2023-04-09T10:10:01.004Z,102091.41
2023-04-09T10:12:28.543Z,102095.34
2023-04-09T10:14:56.574Z,102096.84
2023-04-09T10:17:23.700Z,102098.34
2023-04-09T10:20:32.882Z,102093.78
2023-04-09T10:23:09.511Z,102101.88
2023-04-09T10:25:36.814Z,102092.44
2023-04-09T10:28:18.736Z,102091.03
2023-04-09T10:30:46.425Z,102091.22
2023-04-09T10:33:21.930Z,102097.00
2023-04-09T10:35:49.218Z,102097.59
2023-04-09T10:38:16.352Z,102095.91
2023-04-09T10:40:49.757Z,102091.72
2023-04-09T10:43:23.524Z,102098.25
2023-04-09T10:45:54.433Z,102096.72
2023-04-09T10:48:25.919Z,102097.97
2023-04-09T10:50:53.094Z,102083.47
2023-04-09T10:53:25.626Z,102080.97
2023-04-09T10:55:56.966Z,102094.78
2023-04-09T10:58:27.143Z,102088.00
2023-04-09T11:00:55.404Z,102082.25
2023-04-09T11:03:31.291Z,102087.59
2023-04-09T11:06:05.924Z,102080.47
2023-04-09T11:08:34.233Z,102081.50
2023-04-09T11:11:02.650Z,102081.66
2023-04-09T11:13:32.510Z,102081.06
2023-04-09T11:16:01.472Z,102091.41
2023-04-09T11:18:30.740Z,102089.25
2023-04-09T11:21:01.128Z,102081.66
2023-04-09T11:23:29.284Z,102088.41
2023-04-09T11:25:56.702Z,102090.25
2023-04-09T11:28:27.083Z,102085.03
2023-04-09T11:30:54.309Z,102083.94
2023-04-09T11:33:21.776Z,102074.81
2023-04-09T11:35:51.652Z,102076.25
2023-04-09T11:38:18.731Z,102075.66
2023-04-09T11:40:49.307Z,102073.16
2023-04-09T11:43:17.888Z,102064.88
2023-04-09T11:45:48.373Z,102068.38
2023-04-09T11:48:21.707Z,102074.00
2023-04-09T11:50:49.182Z,102065.81
2023-04-09T11:53:24.504Z,102070.00
2023-04-09T11:55:53.274Z,102072.69
2023-04-09T11:58:29.423Z,102072.22
2023-04-09T12:00:59.245Z,102071.66
2023-04-09T12:03:37.475Z,102072.44
2023-04-09T12:06:07.327Z,102078.88
2023-04-09T12:08:37.811Z,102072.53
2023-04-09T12:11:15.029Z,102067.75
2023-04-09T12:13:45.814Z,102065.66
2023-04-09T12:16:21.277Z,102064.50
2023-04-09T12:18:50.451Z,102067.16
2023-04-09T12:21:19.408Z,102072.38
2023-04-09T12:23:46.602Z,102066.13
2023-04-09T12:26:14.593Z,102063.47
2023-04-09T12:28:41.967Z,102064.25
2023-04-09T12:31:11.956Z,102066.50
2023-04-09T12:33:40.244Z,102056.72
2023-04-09T12:36:07.512Z,102058.50
2023-04-09T12:38:34.634Z,102055.34
2023-04-09T12:41:02.356Z,102053.06
2023-04-09T12:43:29.414Z,102047.03
2023-04-09T12:45:57.136Z,102049.84
2023-04-09T12:48:24.280Z,102060.00
2023-04-09T12:50:51.611Z,102051.03
2023-04-09T12:53:19.336Z,102034.59
2023-04-09T12:55:46.806Z,102037.13
2023-04-09T12:58:13.898Z,102031.97
2023-04-09T13:00:41.450Z,102026.41
2023-04-09T13:03:09.119Z,102030.72
2023-04-09T13:05:36.382Z,102022.97
2023-04-09T13:08:03.849Z,102026.13
2023-04-09T13:10:31.768Z,102021.50
2023-04-09T13:12:59.092Z,102016.97
2023-04-09T13:15:26.226Z,102015.22
2023-04-09T13:17:53.517Z,102020.09
2023-04-09T13:20:20.935Z,102019.72
2023-04-09T13:22:49.106Z,102010.00
2023-04-09T13:25:16.638Z,102012.97
2023-04-09T13:27:44.180Z,102006.44
2023-04-09T13:30:11.722Z,102008.94
2023-04-09T13:32:39.212Z,102011.09
2023-04-09T13:35:10.232Z,102002.34
2023-04-09T13:37:37.315Z,102010.28
2023-04-09T13:40:05.021Z,102008.50
2023-04-09T13:42:32.434Z,102006.88
2023-04-09T13:44:59.575Z,102004.91
2023-04-09T13:47:27.763Z,101998.75
2023-04-09T13:49:57.226Z,101990.25
2023-04-09T13:52:29.670Z,101994.63
2023-04-09T13:54:57.059Z,101990.53
2023-04-09T13:57:24.241Z,101988.63
2023-04-09T13:59:51.537Z,101983.00
2023-04-09T14:02:19.229Z,101980.00
2023-04-09T14:04:46.677Z,101977.13
2023-04-09T14:07:16.537Z,101973.06
2023-04-09T14:09:43.937Z,101975.94
2023-04-09T14:12:11.058Z,101972.72
2023-04-09T14:14:38.200Z,101973.84
2023-04-09T14:17:05.534Z,101971.53
2023-04-09T14:19:32.676Z,101975.16
2023-04-09T14:21:59.732Z,101961.75
2023-04-09T14:24:26.858Z,101968.28
2023-04-09T14:26:54.090Z,101965.38
2023-04-09T14:29:22.005Z,101966.69
2023-04-09T14:31:49.336Z,101963.66
2023-04-09T14:34:16.728Z,101962.09
2023-04-09T14:36:43.794Z,101968.44
2023-04-09T14:39:12.218Z,101953.28
2023-04-09T14:41:39.291Z,101952.09
2023-04-09T14:44:06.415Z,101959.66
2023-04-09T14:46:36.747Z,101948.00
2023-04-09T14:49:03.873Z,101949.03
2023-04-09T14:51:31.809Z,101939.56
2023-04-09T14:53:58.946Z,101941.22
2023-04-09T14:56:26.112Z,101941.03
2023-04-09T14:58:54.137Z,101943.44
2023-04-09T15:01:21.360Z,101942.50
2023-04-09T15:03:48.526Z,101938.56
2023-04-09T15:06:15.698Z,101931.97
2023-04-09T15:08:44.457Z,101944.19
2023-04-09T15:11:20.705Z,101929.47
2023-04-09T15:13:49.945Z,101933.00
2023-04-09T15:16:27.856Z,101939.53
2023-04-09T15:18:58.452Z,101943.06
2023-04-09T15:21:27.773Z,101944.56
2023-04-09T15:23:58.849Z,101945.34
2023-04-09T15:26:27.292Z,101938.59
2023-04-09T15:29:07.757Z,101939.44
2023-04-09T15:31:35.035Z,101937.50
2023-04-09T15:34:02.185Z,101935.72
2023-04-09T15:36:30.861Z,101933.53
2023-04-09T15:38:58.293Z,101936.09
2023-04-09T15:41:26.803Z,101929.44
2023-04-09T15:43:53.934Z,101933.09
2023-04-09T15:46:21.329Z,101936.56
2023-04-09T15:48:48.445Z,101928.44
2023-04-09T15:51:20.668Z,101935.84
2023-04-09T15:53:47.930Z,101933.63
2023-04-09T15:56:17.502Z,101930.88
2023-04-09T15:58:44.595Z,101931.59
2023-04-09T16:01:12.894Z,101929.53
2023-04-09T16:03:41.145Z,101931.66
2023-04-09T16:06:13.442Z,101933.59
2023-04-09T16:08:40.735Z,101927.09
2023-04-09T16:11:08.395Z,101923.53
2023-04-09T16:13:36.194Z,101927.63
2023-04-09T16:16:04.255Z,101929.69
2023-04-09T16:18:31.355Z,101925.31
2023-04-09T16:20:58.813Z,101928.22
2023-04-09T16:23:28.517Z,101933.88
2023-04-09T16:25:57.729Z,101930.31
2023-04-09T16:28:26.189Z,101926.94
2023-04-09T16:30:53.994Z,101919.34
2023-04-09T16:33:21.188Z,101910.38
2023-04-09T16:35:48.393Z,101917.72
2023-04-09T16:38:15.621Z,101919.16
2023-04-09T16:40:43.842Z,101918.50
2023-04-09T16:43:11.455Z,101924.34
2023-04-09T16:45:41.432Z,101922.25
2023-04-09T16:48:12.076Z,101925.16
2023-04-09T16:50:40.772Z,101921.16
2023-04-09T16:53:10.332Z,101921.09
2023-04-09T16:55:37.553Z,101919.19
2023-04-09T16:58:04.675Z,101919.50
2023-04-09T17:00:31.840Z,101922.75
2023-04-09T17:03:02.229Z,101915.94
2023-04-09T17:05:29.904Z,101916.69
2023-04-09T17:08:00.628Z,101914.63
2023-04-09T17:10:28.142Z,101914.25
2023-04-09T17:12:55.211Z,101912.69
2023-04-09T17:15:25.912Z,101916.06
2023-04-09T17:17:53.910Z,101917.59
2023-04-09T17:20:24.192Z,101921.84
2023-04-09T17:22:51.826Z,101924.47
2023-04-09T17:25:20.410Z,101926.19
2023-04-09T17:27:47.552Z,101925.72
2023-04-09T17:30:14.801Z,101924.31
2023-04-09T17:32:43.678Z,101932.56
2023-04-09T17:35:10.846Z,101935.59
2023-04-09T17:37:38.602Z,101932.00
2023-04-09T17:40:06.967Z,101934.75
2023-04-09T17:42:36.294Z,101927.19
2023-04-09T17:45:04.549Z,101936.03
2023-04-09T17:47:31.697Z,101933.91
2023-04-09T17:49:59.666Z,101939.75
2023-04-09T17:52:26.746Z,101938.44
2023-04-09T17:54:53.810Z,101933.69
2023-04-09T17:57:20.910Z,101934.50
2023-04-09T17:59:48.859Z,101934.31
2023-04-09T18:02:16.065Z,101939.66
2023-04-09T18:04:43.353Z,101944.38
2023-04-09T18:07:10.560Z,101945.94
2023-04-09T18:09:39.175Z,101941.72
2023-04-09T18:12:06.390Z,101948.53
2023-04-09T18:14:33.628Z,101943.78
2023-04-09T18:17:01.134Z,101941.72
2023-04-09T18:19:28.338Z,101941.19
2023-04-09T18:21:55.436Z,101941.94
2023-04-09T18:24:22.489Z,101950.56
2023-04-09T18:26:49.638Z,101954.88
2023-04-09T18:29:16.741Z,101945.66
2023-04-09T18:31:43.882Z,101945.13
2023-04-09T18:34:11.496Z,101947.16
2023-04-09T18:36:38.996Z,101952.59
2023-04-09T18:39:06.520Z,101951.09
2023-04-09T18:41:33.581Z,101957.00
2023-04-09T18:44:00.810Z,101965.13
2023-04-09T18:46:28.115Z,101973.09
2023-04-09T18:48:56.291Z,101966.66
2023-04-09T18:51:23.390Z,101964.31
2023-04-09T18:53:53.082Z,101968.19
2023-04-09T18:56:21.275Z,101977.03
2023-04-09T18:58:48.668Z,101972.59
2023-04-09T19:01:17.387Z,101977.94
2023-04-09T19:03:44.849Z,101977.88
2023-04-09T19:06:18.572Z,101982.84
2023-04-09T19:08:47.592Z,101979.69
2023-04-09T19:11:15.325Z,101977.94
2023-04-09T19:13:42.408Z,101984.94
2023-04-09T19:16:09.718Z,101981.13
2023-04-09T19:18:37.810Z,101982.84
2023-04-09T19:21:07.377Z,101984.94
2023-04-09T19:23:34.942Z,101977.69
2023-04-09T19:26:03.108Z,101986.78
2023-04-09T19:28:30.597Z,101982.78
2023-04-09T19:30:59.614Z,101989.00
2023-04-09T19:33:27.840Z,101991.25
2023-04-09T19:35:56.029Z,101983.75
2023-04-09T19:38:23.250Z,101983.78
2023-04-09T19:40:50.409Z,101982.09
2023-04-09T19:43:17.605Z,101986.31
2023-04-09T19:45:46.890Z,101982.69
2023-04-09T19:48:14.082Z,101985.63
2023-04-09T19:50:42.919Z,101988.53
2023-04-09T19:53:10.697Z,101982.00
2023-04-09T19:55:38.088Z,101983.66
2023-04-09T19:58:06.626Z,101974.63
2023-04-09T20:00:34.546Z,101975.97
2023-04-09T20:03:02.883Z,101979.56
2023-04-09T20:05:30.227Z,101977.50
2023-04-09T20:07:57.418Z,101989.16
2023-04-09T20:10:24.889Z,101983.94
2023-04-09T20:12:52.335Z,101982.69
2023-04-09T20:15:22.847Z,101987.63
2023-04-09T20:17:51.369Z,101992.69
2023-04-09T20:20:19.848Z,101991.50
2023-04-09T20:22:55.570Z,101984.22
2023-04-09T20:25:24.877Z,101993.06
2023-04-09T20:27:58.683Z,101991.22
2023-04-09T20:30:25.978Z,101989.00
2023-04-09T20:32:53.121Z,101994.44
2023-04-09T20:35:20.452Z,101993.72
2023-04-09T20:37:49.137Z,101993.69
2023-04-09T20:40:18.680Z,102000.44
2023-04-09T20:42:46.069Z,101991.06
2023-04-09T20:45:13.237Z,101989.66
2023-04-09T20:47:41.035Z,101985.53
2023-04-09T20:50:10.345Z,101979.97
2023-04-09T20:52:38.233Z,101985.13
2023-04-09T20:55:08.296Z,101983.22
2023-04-09T20:57:35.385Z,101982.16
2023-04-09T21:00:03.175Z,101977.72
2023-04-09T21:02:30.987Z,101976.09
2023-04-09T21:05:08.309Z,101979.53
2023-04-09T21:07:49.498Z,101973.50
2023-04-09T21:10:16.716Z,101970.69
2023-04-09T21:12:43.809Z,101978.53
2023-04-09T21:15:11.729Z,101978.66
2023-04-09T21:17:38.896Z,101972.78
2023-04-09T21:20:09.271Z,101977.31
2023-04-09T21:22:36.663Z,101972.25
2023-04-09T21:25:07.156Z,101975.53
2023-04-09T21:27:34.346Z,101969.84
2023-04-09T21:30:01.441Z,101977.63
2023-04-09T21:32:28.615Z,101968.13
2023-04-09T21:34:55.698Z,101963.56
2023-04-09T21:37:22.814Z,101968.22
2023-04-09T21:39:50.089Z,101969.63
2023-04-09T21:42:17.178Z,101958.50
2023-04-09T21:44:44.314Z,101956.38
2023-04-09T21:47:12.135Z,101959.66
2023-04-09T21:49:40.357Z,101956.84
2023-04-09T21:52:14.127Z,101959.72
2023-04-09T21:54:43.898Z,101958.56
2023-04-09T21:57:11.719Z,101968.25
2023-04-09T21:59:40.981Z,101967.78
2023-04-09T22:02:09.250Z,101969.63
2023-04-09T22:04:36.432Z,101963.41
2023-04-09T22:07:04.162Z,101979.03
2023-04-09T22:09:31.547Z,101973.59
2023-04-09T22:11:59.560Z,101974.94
2023-04-09T22:14:29.264Z,101963.50
2023-04-09T22:17:01.498Z,101972.56
2023-04-09T22:19:32.026Z,101974.16
2023-04-09T22:21:59.782Z,101974.78
2023-04-09T22:24:28.593Z,101980.31
2023-04-09T22:26:58.765Z,101977.00
2023-04-09T22:29:26.818Z,101972.50
2023-04-09T22:31:55.712Z,101974.28
2023-04-09T22:34:22.838Z,101983.63
2023-04-09T22:36:50.675Z,101976.97
2023-04-09T22:39:17.825Z,101980.31
2023-04-09T22:41:44.916Z,101978.13
2023-04-09T22:44:12.091Z,101987.69
2023-04-09T22:46:39.177Z,101983.53
2023-04-09T22:49:06.552Z,101988.16
2023-04-09T22:51:36.744Z,101983.47
2023-04-09T22:54:04.201Z,101994.25
2023-04-09T22:56:32.271Z,101986.84
2023-04-09T22:58:59.685Z,101984.97
2023-04-09T23:01:27.952Z,101990.28
2023-04-09T23:03:55.577Z,101998.25
2023-04-09T23:06:22.919Z,101993.28
2023-04-09T23:08:50.527Z,101989.94
2023-04-09T23:11:17.812Z,101986.84
2023-04-09T23:13:44.977Z,101979.03
2023-04-09T23:16:12.151Z,101976.16
2023-04-09T23:18:39.339Z,101975.31
2023-04-09T23:21:10.974Z,101972.72
2023-04-09T23:23:39.103Z,101970.59
2023-04-09T23:26:06.829Z,101965.34
2023-04-09T23:28:34.158Z,101963.16
2023-04-09T23:31:01.554Z,101968.94
2023-04-09T23:33:28.656Z,101969.25
2023-04-09T23:35:55.757Z,101972.28
2023-04-09T23:38:23.315Z,101967.53
2023-04-09T23:40:50.584Z,101964.78
2023-04-09T23:43:17.640Z,101967.91
2023-04-09T23:45:44.900Z,101968.19
2023-04-09T23:48:12.874Z,101962.84
2023-04-09T23:50:41.132Z,101963.28
2023-04-09T23:53:08.715Z,101959.56
2023-04-09T23:55:41.279Z,101964.88
2023-04-09T23:58:09.428Z,101959.97
